createdAt,value
2022-12-06T00:00:38.167Z,22.10
2022-12-06T00:03:01.784Z,22.47
2022-12-06T00:05:25.400Z,22.90
2022-12-06T00:07:50.174Z,21.47
2022-12-06T00:10:14.034Z,20.50
2022-12-06T00:12:37.587Z,22.17
2022-12-06T00:15:02.618Z,20.00
2022-12-06T00:17:26.143Z,20.77
2022-12-06T00:19:49.692Z,20.70
2022-12-06T00:22:13.239Z,20.73
2022-12-06T00:24:37.007Z,19.97
2022-12-06T00:27:00.556Z,18.90
2022-12-06T00:29:25.354Z,17.63
2022-12-06T00:31:51.370Z,16.83
2022-12-06T00:34:15.098Z,17.37
2022-12-06T00:36:41.131Z,14.93
2022-12-06T00:39:07.738Z,16.57
2022-12-06T00:41:31.326Z,15.13
2022-12-06T00:43:55.510Z,14.97
2022-12-06T00:46:21.429Z,15.23
2022-12-06T00:48:46.943Z,15.27
2022-12-06T00:51:10.533Z,16.13
2022-12-06T00:53:34.114Z,17.07
2022-12-06T00:55:57.704Z,16.63
2022-12-06T00:58:21.198Z,16.33
2022-12-06T01:00:45.045Z,16.80
2022-12-06T01:03:09.114Z,18.47
2022-12-06T01:05:34.347Z,17.43
2022-12-06T01:07:58.257Z,17.50
2022-12-06T01:10:21.923Z,18.17
2022-12-06T01:12:45.653Z,17.40
2022-12-06T01:15:10.947Z,19.23
2022-12-06T01:17:35.496Z,18.83
2022-12-06T01:19:59.300Z,17.87
2022-12-06T01:22:24.548Z,19.63
2022-12-06T01:24:49.066Z,19.47
2022-12-06T01:27:12.588Z,18.60
2022-12-06T01:29:36.266Z,18.27
2022-12-06T01:31:59.864Z,19.37
2022-12-06T01:34:23.413Z,19.40
2022-12-06T01:36:47.164Z,17.97
2022-12-06T01:39:12.792Z,17.10
2022-12-06T01:41:36.340Z,16.43
2022-12-06T01:44:00.285Z,17.30
2022-12-06T01:46:32.172Z,16.03
2022-12-06T01:49:16.696Z,17.70
2022-12-06T01:51:44.815Z,16.87
2022-12-06T01:54:13.248Z,16.00
2022-12-06T01:56:37.852Z,16.00
2022-12-06T01:59:01.960Z,15.67
2022-12-06T02:01:27.217Z,15.87
2022-12-06T02:03:50.848Z,15.57
2022-12-06T02:06:14.507Z,15.50
2022-12-06T02:08:39.248Z,16.23
2022-12-06T02:11:05.766Z,16.20
2022-12-06T02:13:29.724Z,15.77
2022-12-06T02:16:02.164Z,15.80
2022-12-06T02:18:36.251Z,15.40
2022-12-06T02:21:11.937Z,15.33
2022-12-06T02:24:07.994Z,14.80
2022-12-06T02:26:40.957Z,13.53
2022-12-06T02:29:59.818Z,14.43
2022-12-06T02:32:32.454Z,13.47
2022-12-06T02:35:03.970Z,14.17
2022-12-06T02:37:34.911Z,14.43
2022-12-06T02:40:05.759Z,14.33
2022-12-06T02:42:36.589Z,13.17
2022-12-06T02:45:03.502Z,12.77
2022-12-06T02:47:35.414Z,12.63
2022-12-06T02:50:00.778Z,14.03
2022-12-06T02:52:28.387Z,13.73
2022-12-06T02:54:56.178Z,12.97
2022-12-06T02:57:21.194Z,14.30
2022-12-06T02:59:53.848Z,14.07
2022-12-06T03:02:17.734Z,13.43
2022-12-06T03:04:54.139Z,14.90
2022-12-06T03:07:38.371Z,14.90
2022-12-06T03:10:33.127Z,15.33
2022-12-06T03:13:07.755Z,13.80
2022-12-06T03:15:44.756Z,14.90
2022-12-06T03:18:17.414Z,13.77
2022-12-06T03:20:48.637Z,15.37
2022-12-06T03:23:16.988Z,14.47
2022-12-06T03:25:41.187Z,15.47
2022-12-06T03:28:07.547Z,14.30
2022-12-06T03:30:34.409Z,14.87
2022-12-06T03:32:58.547Z,15.80
2022-12-06T03:35:27.365Z,13.97
2022-12-06T03:38:05.655Z,15.30
2022-12-06T03:40:33.539Z,14.30
2022-12-06T03:42:57.747Z,15.20
2022-12-06T03:45:23.225Z,14.90
2022-12-06T03:47:56.599Z,15.07
2022-12-06T03:50:25.725Z,16.23
2022-12-06T03:52:49.408Z,17.13
2022-12-06T03:55:14.573Z,16.70
2022-12-06T03:57:38.363Z,14.50
2022-12-06T04:00:02.201Z,14.37
2022-12-06T04:02:34.958Z,13.80
2022-12-06T04:04:58.510Z,13.73
2022-12-06T04:07:22.033Z,12.70
2022-12-06T04:09:56.455Z,13.43
2022-12-06T04:12:38.665Z,13.33
2022-12-06T04:15:02.258Z,11.90
2022-12-06T04:17:43.319Z,13.10
2022-12-06T04:20:08.964Z,12.50
2022-12-06T04:22:50.016Z,12.60
2022-12-06T04:25:13.612Z,13.87
2022-12-06T04:27:56.253Z,14.10
2022-12-06T04:30:37.863Z,12.83
2022-12-06T04:33:18.875Z,12.63
2022-12-06T04:35:59.575Z,11.73
2022-12-06T04:38:42.144Z,11.30
2022-12-06T04:41:05.989Z,11.23
2022-12-06T04:43:44.728Z,11.50
2022-12-06T04:46:08.393Z,11.43
2022-12-06T04:48:31.930Z,11.37
2022-12-06T04:50:55.884Z,12.53
2022-12-06T04:53:19.773Z,11.60
2022-12-06T04:55:47.533Z,10.37
2022-12-06T04:58:11.050Z,11.23
2022-12-06T05:00:36.009Z,10.53
2022-12-06T05:02:59.548Z,11.40
2022-12-06T05:05:23.149Z,10.87
2022-12-06T05:07:46.752Z,10.83
2022-12-06T05:10:11.057Z,10.83
2022-12-06T05:12:34.560Z,11.13
2022-12-06T05:14:58.178Z,10.97
2022-12-06T05:17:23.058Z,10.63
2022-12-06T05:19:46.642Z,11.57
2022-12-06T05:22:10.145Z,10.80
2022-12-06T05:24:34.081Z,10.73
2022-12-06T05:26:57.621Z,11.07
2022-12-06T05:29:21.186Z,11.00
2022-12-06T05:31:44.811Z,10.60
2022-12-06T05:34:11.666Z,11.13
2022-12-06T05:36:35.383Z,10.77
2022-12-06T05:38:59.148Z,11.43
2022-12-06T05:41:24.117Z,11.03
2022-12-06T05:43:47.921Z,11.23
2022-12-06T05:46:11.476Z,10.60
2022-12-06T05:48:35.658Z,10.43
2022-12-06T05:51:00.665Z,10.10
2022-12-06T05:53:24.344Z,9.27
2022-12-06T05:55:48.168Z,10.10
2022-12-06T05:58:12.217Z,9.20
2022-12-06T06:00:36.635Z,9.23
2022-12-06T06:03:00.388Z,9.70
2022-12-06T06:05:24.158Z,8.73
2022-12-06T06:07:49.206Z,10.77
2022-12-06T06:10:13.177Z,10.07
2022-12-06T06:12:36.783Z,10.47
2022-12-06T06:15:00.372Z,10.40
2022-12-06T06:17:24.313Z,10.27
2022-12-06T06:19:51.423Z,10.20
2022-12-06T06:22:15.333Z,10.03
2022-12-06T06:24:43.077Z,9.97
2022-12-06T06:27:07.047Z,9.97
2022-12-06T06:29:31.055Z,10.70
2022-12-06T06:31:54.933Z,10.10
2022-12-06T06:34:18.541Z,10.20
2022-12-06T06:36:45.763Z,10.87
2022-12-06T06:39:09.682Z,10.93
2022-12-06T06:41:34.662Z,10.90
2022-12-06T06:43:58.169Z,11.00
2022-12-06T06:46:21.817Z,10.93
2022-12-06T06:48:45.396Z,11.43
2022-12-06T06:51:11.412Z,11.53
2022-12-06T06:53:35.195Z,11.20
2022-12-06T06:55:59.137Z,11.17
2022-12-06T06:58:24.463Z,11.33
2022-12-06T07:00:48.043Z,11.13
2022-12-06T07:03:16.222Z,10.50
2022-12-06T07:05:39.848Z,11.13
2022-12-06T07:08:04.231Z,10.03
2022-12-06T07:10:27.834Z,10.97
2022-12-06T07:12:54.115Z,10.10
2022-12-06T07:15:19.285Z,10.70
2022-12-06T07:17:42.827Z,10.27
2022-12-06T07:20:08.239Z,10.20
2022-12-06T07:22:32.195Z,10.20
2022-12-06T07:24:55.771Z,9.07
2022-12-06T07:27:19.296Z,10.17
2022-12-06T07:29:42.928Z,10.23
2022-12-06T07:32:08.237Z,10.77
2022-12-06T07:34:32.489Z,9.87
2022-12-06T07:36:56.009Z,10.13
2022-12-06T07:39:19.674Z,10.60
2022-12-06T07:42:00.412Z,10.07
2022-12-06T07:45:01.354Z,9.60
2022-12-06T07:47:27.198Z,9.93
2022-12-06T07:49:53.763Z,9.97
2022-12-06T07:52:17.397Z,11.50
2022-12-06T07:54:41.539Z,10.87
2022-12-06T07:57:05.231Z,11.00
2022-12-06T07:59:29.015Z,11.53
2022-12-06T08:01:53.192Z,10.90
2022-12-06T08:04:18.560Z,11.87
2022-12-06T08:06:42.317Z,11.43
2022-12-06T08:09:06.760Z,10.80
2022-12-06T08:11:30.379Z,11.93
2022-12-06T08:13:53.874Z,11.03
2022-12-06T08:16:17.799Z,11.50
2022-12-06T08:18:41.714Z,11.77
2022-12-06T08:21:07.395Z,11.57
2022-12-06T08:23:34.451Z,11.40
2022-12-06T08:25:59.560Z,11.27
2022-12-06T08:28:23.059Z,11.77
2022-12-06T08:30:47.091Z,11.40
2022-12-06T08:33:10.608Z,11.20
2022-12-06T08:35:37.710Z,10.93
2022-12-06T08:38:02.590Z,11.67
2022-12-06T08:40:26.256Z,9.77
2022-12-06T08:42:49.846Z,10.47
2022-12-06T08:45:13.513Z,10.93
2022-12-06T08:47:37.085Z,10.23
2022-12-06T08:50:01.105Z,10.60
2022-12-06T08:52:24.899Z,10.13
2022-12-06T08:54:50.017Z,9.50
2022-12-06T08:57:13.533Z,9.70
2022-12-06T08:59:37.976Z,9.00
2022-12-06T09:02:01.632Z,9.97
2022-12-06T09:04:25.412Z,10.17
2022-12-06T09:06:48.992Z,10.10
2022-12-06T09:09:14.340Z,9.40
2022-12-06T09:11:40.270Z,9.13
2022-12-06T09:14:04.418Z,9.23
2022-12-06T09:16:28.056Z,8.60
2022-12-06T09:18:52.895Z,8.47
2022-12-06T09:21:19.280Z,9.50
2022-12-06T09:23:43.177Z,8.43
2022-12-06T09:26:08.666Z,8.93
2022-12-06T09:28:36.827Z,8.37
2022-12-06T09:31:00.477Z,8.27
2022-12-06T09:33:24.445Z,7.70
2022-12-06T09:35:48.601Z,7.17
2022-12-06T09:38:13.162Z,7.40
2022-12-06T09:40:45.957Z,7.43
2022-12-06T09:43:28.679Z,7.13
2022-12-06T09:46:12.727Z,7.10
2022-12-06T09:48:56.866Z,6.93
2022-12-06T09:51:37.140Z,7.53
2022-12-06T09:54:19.868Z,7.13
2022-12-06T09:56:52.024Z,7.03
2022-12-06T09:59:23.612Z,7.23
2022-12-06T10:02:13.076Z,7.17
2022-12-06T10:05:24.855Z,7.13
2022-12-06T10:08:00.201Z,6.67
2022-12-06T10:10:40.490Z,8.17
2022-12-06T10:13:13.393Z,7.63
2022-12-06T10:15:54.413Z,8.70
2022-12-06T10:18:36.458Z,8.83
2022-12-06T10:21:14.041Z,9.43
2022-12-06T10:24:01.678Z,8.87
2022-12-06T10:26:33.274Z,8.73
2022-12-06T10:29:09.954Z,9.63
2022-12-06T10:31:46.768Z,10.60
2022-12-06T10:34:22.029Z,10.47
2022-12-06T10:37:00.750Z,9.43
2022-12-06T10:39:30.167Z,10.13
2022-12-06T10:42:02.860Z,9.83
2022-12-06T10:44:34.524Z,9.80
2022-12-06T10:47:05.059Z,9.90
2022-12-06T10:49:41.739Z,10.93
2022-12-06T10:52:18.877Z,11.23
2022-12-06T10:54:49.526Z,10.80
2022-12-06T10:57:18.860Z,11.10
2022-12-06T10:59:51.824Z,11.43
2022-12-06T11:02:26.064Z,11.03
2022-12-06T11:04:52.222Z,11.53
2022-12-06T11:07:20.650Z,10.10
2022-12-06T11:09:47.970Z,10.70
2022-12-06T11:12:31.225Z,9.73
2022-12-06T11:15:04.584Z,9.80
2022-12-06T11:17:31.477Z,10.30
2022-12-06T11:20:03.210Z,9.47
2022-12-06T11:22:39.516Z,10.20
2022-12-06T11:25:15.668Z,9.23
2022-12-06T11:27:47.617Z,9.17
2022-12-06T11:30:20.350Z,9.70
2022-12-06T11:32:45.400Z,9.17
2022-12-06T11:35:18.022Z,8.63
2022-12-06T11:37:44.520Z,8.80
2022-12-06T11:40:21.736Z,8.30
2022-12-06T11:42:45.376Z,9.20
2022-12-06T11:45:17.026Z,8.10
2022-12-06T11:47:40.653Z,8.57
2022-12-06T11:50:10.056Z,8.63
2022-12-06T11:52:44.153Z,9.43
2022-12-06T11:55:17.482Z,7.40
2022-12-06T11:57:48.137Z,7.20
2022-12-06T12:00:17.704Z,7.17
2022-12-06T12:02:42.441Z,7.30
2022-12-06T12:05:12.501Z,6.33
2022-12-06T12:07:39.678Z,6.30
2022-12-06T12:10:25.615Z,6.00
2022-12-06T12:13:08.105Z,5.70
2022-12-06T12:15:31.814Z,6.00
2022-12-06T12:17:58.590Z,6.20
2022-12-06T12:20:28.209Z,6.03
2022-12-06T12:23:01.205Z,6.30
2022-12-06T12:25:28.429Z,6.43
2022-12-06T12:27:54.621Z,5.73
2022-12-06T12:30:32.092Z,6.57
2022-12-06T12:33:21.802Z,6.27
2022-12-06T12:35:48.203Z,6.90
2022-12-06T12:38:37.580Z,7.10
2022-12-06T12:41:03.782Z,6.30
2022-12-06T12:43:31.496Z,6.80
2022-12-06T12:46:18.971Z,6.60
2022-12-06T12:48:44.969Z,6.70
2022-12-06T12:51:33.460Z,7.13
2022-12-06T12:54:02.295Z,6.97
2022-12-06T12:56:27.142Z,7.00
2022-12-06T12:58:54.478Z,7.47
2022-12-06T13:01:37.466Z,8.17
2022-12-06T13:04:06.072Z,7.77
2022-12-06T13:06:37.319Z,8.13
2022-12-06T13:09:05.801Z,6.97
2022-12-06T13:11:30.897Z,8.07
2022-12-06T13:13:56.808Z,7.67
2022-12-06T13:16:30.068Z,8.30
2022-12-06T13:18:59.413Z,7.83
2022-12-06T13:21:26.725Z,7.90
2022-12-06T13:23:54.149Z,7.70
2022-12-06T13:26:26.756Z,7.70
2022-12-06T13:28:55.907Z,8.57
2022-12-06T13:31:24.385Z,8.10
2022-12-06T13:33:53.837Z,8.53
2022-12-06T13:36:18.714Z,7.90
2022-12-06T13:38:43.642Z,8.23
2022-12-06T13:41:08.672Z,8.87
2022-12-06T13:44:00.121Z,7.97
2022-12-06T13:46:28.234Z,8.57
2022-12-06T13:48:53.061Z,9.90
2022-12-06T13:51:50.619Z,8.77
2022-12-06T13:54:38.183Z,8.90
2022-12-06T13:57:22.126Z,8.57
2022-12-06T13:59:47.183Z,8.43
2022-12-06T14:02:53.771Z,8.80
2022-12-06T14:06:07.346Z,8.07
2022-12-06T14:08:39.466Z,8.70
2022-12-06T14:11:19.514Z,7.70
2022-12-06T14:13:45.351Z,9.03
2022-12-06T14:16:17.791Z,8.50
2022-12-06T14:18:43.280Z,8.97
2022-12-06T14:21:06.950Z,9.17
2022-12-06T14:23:33.836Z,9.03
2022-12-06T14:26:23.941Z,9.53
2022-12-06T14:28:48.437Z,8.70
2022-12-06T14:31:38.771Z,8.70
2022-12-06T14:34:02.454Z,8.33
2022-12-06T14:36:31.554Z,8.57
2022-12-06T14:39:03.065Z,8.80
2022-12-06T14:41:55.515Z,8.13
2022-12-06T14:44:20.932Z,9.27
2022-12-06T14:46:47.696Z,8.60
2022-12-06T14:49:35.632Z,9.00
2022-12-06T14:51:59.286Z,7.87
2022-12-06T14:54:36.079Z,8.33
2022-12-06T14:57:00.084Z,8.40
2022-12-06T15:00:13.098Z,7.87
2022-12-06T15:02:24.511Z,8.40
2022-12-06T15:04:48.186Z,9.43
2022-12-06T15:07:41.702Z,8.63
2022-12-06T15:10:23.375Z,7.80
2022-12-06T15:12:59.329Z,7.90
2022-12-06T15:15:41.967Z,8.23
2022-12-06T15:18:22.075Z,8.97
2022-12-06T15:20:45.759Z,8.17
2022-12-06T15:23:49.493Z,9.30
2022-12-06T15:26:14.018Z,7.50
2022-12-06T15:28:38.186Z,6.87
2022-12-06T15:31:01.837Z,10.10
2022-12-06T15:33:27.321Z,10.17
2022-12-06T15:35:51.819Z,9.93
2022-12-06T15:38:15.445Z,9.67
2022-12-06T15:40:43.941Z,11.37
2022-12-06T15:43:17.063Z,9.83
2022-12-06T15:45:40.720Z,10.20
2022-12-06T15:48:04.327Z,13.40
2022-12-06T15:50:29.362Z,21.37
2022-12-06T15:52:52.987Z,15.10
2022-12-06T15:55:18.578Z,8.97
2022-12-06T15:57:42.087Z,7.70
2022-12-06T16:00:07.575Z,8.37
2022-12-06T16:02:31.194Z,7.63
2022-12-06T16:04:54.793Z,8.47
2022-12-06T16:07:19.822Z,8.07
2022-12-06T16:09:43.440Z,8.83
2022-12-06T16:12:07.928Z,9.03
2022-12-06T16:14:33.063Z,8.87
2022-12-06T16:16:57.974Z,8.57
2022-12-06T16:19:22.851Z,8.80
2022-12-06T16:21:57.964Z,8.70
2022-12-06T16:24:23.236Z,7.17
2022-12-06T16:26:48.896Z,7.00
2022-12-06T16:29:17.142Z,7.20
2022-12-06T16:31:41.326Z,7.67
2022-12-06T16:34:05.323Z,7.77
2022-12-06T16:36:32.033Z,7.70
2022-12-06T16:38:57.747Z,7.67
2022-12-06T16:41:26.065Z,7.50
2022-12-06T16:43:50.200Z,8.27
2022-12-06T16:46:33.995Z,8.50
2022-12-06T16:49:22.275Z,8.80
2022-12-06T16:51:44.056Z,8.20
2022-12-06T16:54:07.880Z,7.57
2022-12-06T16:56:35.292Z,7.10
2022-12-06T16:59:01.306Z,6.57
2022-12-06T17:01:27.308Z,7.60
2022-12-06T17:03:56.324Z,6.27
2022-12-06T17:06:19.960Z,9.07
2022-12-06T17:08:43.487Z,6.53
2022-12-06T17:11:21.190Z,6.33
2022-12-06T17:13:46.152Z,6.13
2022-12-06T17:16:10.291Z,6.70
2022-12-06T17:18:33.874Z,6.87
2022-12-06T17:20:57.384Z,6.20
2022-12-06T17:23:20.951Z,6.83
2022-12-06T17:25:44.465Z,6.23
2022-12-06T17:28:08.071Z,6.83
2022-12-06T17:30:33.735Z,7.03
2022-12-06T17:32:57.282Z,7.87
2022-12-06T17:35:20.812Z,7.13
2022-12-06T17:37:44.395Z,7.97
2022-12-06T17:40:09.952Z,8.13
2022-12-06T17:42:50.688Z,7.80
2022-12-06T17:45:14.286Z,8.47
2022-12-06T17:47:39.958Z,9.20
2022-12-06T17:50:04.507Z,8.47
2022-12-06T17:52:28.327Z,9.60
2022-12-06T17:54:52.013Z,8.90
2022-12-06T17:57:18.252Z,10.20
2022-12-06T17:59:42.118Z,9.80
2022-12-06T18:02:15.135Z,11.87
2022-12-06T18:04:40.481Z,9.73
2022-12-06T18:07:04.007Z,10.83
2022-12-06T18:09:27.802Z,10.97
2022-12-06T18:11:51.791Z,15.17
2022-12-06T18:14:15.596Z,11.57
2022-12-06T18:16:41.848Z,11.57
2022-12-06T18:19:08.888Z,11.60
2022-12-06T18:21:36.446Z,11.70
2022-12-06T18:24:21.054Z,14.67
2022-12-06T18:26:43.804Z,12.83
2022-12-06T18:29:09.345Z,13.30
2022-12-06T18:31:35.078Z,12.87
2022-12-06T18:33:59.950Z,12.87
2022-12-06T18:36:23.554Z,11.83
2022-12-06T18:38:49.425Z,11.60
2022-12-06T18:41:15.426Z,12.07
2022-12-06T18:43:39.310Z,12.63
2022-12-06T18:46:05.654Z,12.67
2022-12-06T18:48:29.953Z,11.80
2022-12-06T18:50:53.690Z,11.70
2022-12-06T18:53:17.967Z,12.87
2022-12-06T18:55:44.911Z,12.83
2022-12-06T18:58:08.429Z,12.87
2022-12-06T19:00:32.018Z,13.60
2022-12-06T19:02:55.549Z,12.90
2022-12-06T19:05:33.023Z,12.53
2022-12-06T19:08:03.150Z,12.50
2022-12-06T19:10:26.981Z,12.07
2022-12-06T19:12:51.981Z,14.00
2022-12-06T19:15:15.727Z,12.73
2022-12-06T19:17:43.120Z,13.23
2022-12-06T19:20:08.522Z,13.27
2022-12-06T19:22:32.286Z,12.37
2022-12-06T19:24:55.781Z,13.47
2022-12-06T19:27:20.786Z,13.47
2022-12-06T19:29:45.899Z,13.93
2022-12-06T19:32:11.305Z,12.33
2022-12-06T19:34:34.831Z,13.27
2022-12-06T19:36:58.455Z,14.33
2022-12-06T19:39:22.987Z,16.13
2022-12-06T19:42:04.354Z,14.10
2022-12-06T19:44:28.759Z,13.87
2022-12-06T19:46:53.974Z,17.07
2022-12-06T19:49:20.853Z,13.13
2022-12-06T19:51:47.247Z,13.77
2022-12-06T19:54:13.230Z,13.03
2022-12-06T19:56:38.697Z,13.53
2022-12-06T19:59:11.313Z,13.43
2022-12-06T20:01:35.214Z,15.33
2022-12-06T20:04:00.260Z,13.10
2022-12-06T20:06:26.386Z,14.13
2022-12-06T20:08:51.431Z,14.80
2022-12-06T20:11:35.234Z,12.93
2022-12-06T20:14:01.550Z,11.97
2022-12-06T20:16:25.239Z,12.60
2022-12-06T20:18:48.985Z,12.43
2022-12-06T20:21:14.423Z,12.10
2022-12-06T20:23:38.320Z,10.73
2022-12-06T20:26:02.253Z,11.37
2022-12-06T20:28:25.947Z,11.53
2022-12-06T20:30:49.606Z,10.50
2022-12-06T20:33:13.734Z,10.17
2022-12-06T20:35:38.720Z,10.23
2022-12-06T20:38:03.934Z,11.40
2022-12-06T20:40:31.374Z,12.27
2022-12-06T20:42:55.529Z,11.93
2022-12-06T20:45:20.588Z,12.73
2022-12-06T20:47:44.472Z,12.40
2022-12-06T20:50:09.614Z,12.37
2022-12-06T20:52:33.370Z,12.40
2022-12-06T20:54:58.288Z,13.03
2022-12-06T20:57:22.070Z,11.93
2022-12-06T20:59:45.570Z,11.57
2022-12-06T21:02:12.131Z,11.57
2022-12-06T21:04:35.697Z,12.70
2022-12-06T21:07:00.038Z,11.00
2022-12-06T21:09:23.956Z,12.10
2022-12-06T21:11:49.369Z,10.83
2022-12-06T21:14:14.805Z,11.83
2022-12-06T21:16:38.610Z,10.80
2022-12-06T21:19:05.413Z,11.23
2022-12-06T21:21:34.506Z,11.57
2022-12-06T21:24:00.829Z,11.37
2022-12-06T21:26:24.421Z,11.63
2022-12-06T21:28:49.492Z,10.97
2022-12-06T21:31:13.197Z,10.13
2022-12-06T21:33:36.872Z,11.27
2022-12-06T21:36:04.120Z,10.47
2022-12-06T21:38:30.688Z,10.87
2022-12-06T21:40:58.684Z,10.03
2022-12-06T21:43:25.087Z,10.27
2022-12-06T21:45:50.072Z,10.10
2022-12-06T21:48:13.871Z,9.67
2022-12-06T21:50:37.958Z,9.13
2022-12-06T21:53:01.719Z,9.30
2022-12-06T21:55:25.570Z,9.23
2022-12-06T21:57:49.509Z,8.17
2022-12-06T22:00:15.506Z,8.40
2022-12-06T22:02:40.581Z,8.43
2022-12-06T22:05:04.223Z,7.77
2022-12-06T22:07:27.864Z,7.40
2022-12-06T22:09:52.334Z,6.93
2022-12-06T22:12:16.447Z,6.63
2022-12-06T22:14:39.944Z,5.70
2022-12-06T22:17:03.846Z,5.23
2022-12-06T22:19:29.084Z,5.47
2022-12-06T22:21:55.632Z,4.87
2022-12-06T22:24:19.164Z,4.60
2022-12-06T22:26:43.006Z,4.50
2022-12-06T22:29:06.837Z,5.10
2022-12-06T22:31:33.630Z,4.67
2022-12-06T22:33:58.907Z,4.90
2022-12-06T22:36:24.843Z,5.03
2022-12-06T22:38:50.010Z,5.10
2022-12-06T22:41:13.574Z,5.83
2022-12-06T22:43:38.115Z,5.77
2022-12-06T22:46:06.967Z,5.57
2022-12-06T22:48:31.082Z,5.90
2022-12-06T22:50:54.700Z,5.97
2022-12-06T22:53:19.577Z,6.10
2022-12-06T22:55:43.154Z,6.30
2022-12-06T22:58:06.688Z,6.87
2022-12-06T23:00:30.486Z,8.23
2022-12-06T23:02:54.056Z,8.63
2022-12-06T23:05:17.680Z,8.87
2022-12-06T23:07:41.824Z,9.77
2022-12-06T23:10:08.887Z,10.57
2022-12-06T23:12:32.515Z,11.57
2022-12-06T23:14:56.072Z,11.20
2022-12-06T23:17:19.727Z,11.10
2022-12-06T23:19:43.342Z,12.10
2022-12-06T23:22:06.861Z,11.83
2022-12-06T23:24:30.490Z,11.47
2022-12-06T23:26:58.128Z,11.63
2022-12-06T23:29:22.153Z,11.13
2022-12-06T23:31:47.705Z,10.23
2022-12-06T23:34:15.029Z,12.07
2022-12-06T23:36:38.577Z,11.40
2022-12-06T23:39:02.197Z,10.03
2022-12-06T23:41:29.026Z,10.70
2022-12-06T23:43:54.953Z,9.63
2022-12-06T23:46:22.539Z,10.40
2022-12-06T23:48:46.724Z,11.03
2022-12-06T23:51:13.061Z,10.00
2022-12-06T23:53:36.989Z,10.93
2022-12-06T23:56:00.956Z,9.87
2022-12-06T23:58:24.530Z,9.73
